Time;durP1;ratioP1;P1;durP2;ratioP2;P2;SDS_P1;SDS_P2;PMS_P1;PMS_P2;Temp;Humidity;BMP_temperature;BMP_pressure;BME280_temperature;BME280_humidity;BME280_pressure;Samples;Min_cycle;Max_cycle;Signal;HPM_P1;HPM_P2
2022/01/11 05:02:15;;;;;;;30.73;15.37;;;3.00;99.90;;;;;;5168409;23;20506;-77
2022/01/11 05:04:41;;;;;;;36.70;18.97;;;3.10;99.90;;;;;;4993283;28;21029;-77
2022/01/11 05:07:08;;;;;;;31.40;15.70;;;3.00;99.90;;;;;;4993393;28;20874;-77
2022/01/11 05:09:35;;;;;;;32.67;18.17;;;3.00;99.90;;;;;;4993355;28;20558;-77
2022/01/11 05:12:02;;;;;;;33.20;17.40;;;3.00;99.90;;;;;;4993534;28;20561;-77
2022/01/11 05:14:29;;;;;;;29.20;15.83;;;3.00;99.90;;;;;;5015975;23;20685;-73
2022/01/11 05:16:56;;;;;;;30.90;16.80;;;3.00;99.90;;;;;;4993384;28;21035;-73
2022/01/11 05:19:24;;;;;;;32.83;17.50;;;3.00;99.90;;;;;;4992373;28;20491;-73
2022/01/11 05:21:51;;;;;;;35.50;18.70;;;3.00;99.90;;;;;;4993287;28;20542;-73
2022/01/11 05:24:18;;;;;;;30.83;16.97;;;2.90;99.90;;;;;;4993223;28;20566;-73
2022/01/11 05:26:45;;;;;;;29.83;16.80;;;2.90;99.90;;;;;;4993101;28;20812;-73
2022/01/11 05:29:12;;;;;;;32.30;16.50;;;2.90;99.90;;;;;;4993018;28;20535;-73
2022/01/11 05:31:39;;;;;;;26.40;15.30;;;2.90;99.90;;;;;;4993135;28;20542;-73
2022/01/11 05:34:06;;;;;;;38.00;19.40;;;2.90;99.90;;;;;;4992761;28;20489;-73
2022/01/11 05:36:34;;;;;;;38.70;19.37;;;2.90;99.90;;;;;;4992644;28;20534;-73
2022/01/11 05:39:01;;;;;;;30.77;16.00;;;2.90;99.90;;;;;;4992834;28;20936;-73
2022/01/11 05:41:31;;;;;;;32.20;17.13;;;2.90;99.90;;;;;;4993144;28;20562;-73
2022/01/11 05:43:58;;;;;;;30.90;16.73;;;2.90;99.90;;;;;;4992878;28;20558;-73
2022/01/11 05:46:25;;;;;;;28.33;15.80;;;2.80;99.90;;;;;;4992730;28;20541;-73
2022/01/11 05:48:52;;;;;;;34.70;17.07;;;2.80;99.90;;;;;;4992676;28;20525;-73
2022/01/11 05:51:19;;;;;;;32.73;18.00;;;2.80;99.90;;;;;;4986740;28;20443;-73
2022/01/11 05:53:47;;;;;;;30.60;16.60;;;2.80;99.90;;;;;;4985306;28;20521;-73
2022/01/11 05:56:14;;;;;;;31.57;17.57;;;2.80;99.90;;;;;;4981301;28;20534;-73
2022/01/11 05:58:41;;;;;;;28.17;16.10;;;2.80;99.90;;;;;;4978280;28;21007;-73
2022/01/11 06:01:08;;;;;;;30.50;15.93;;;2.80;99.90;;;;;;4973110;28;20491;-73
2022/01/11 06:03:35;;;;;;;29.90;16.23;;;2.80;99.90;;;;;;4973429;28;20460;-73
2022/01/11 06:06:02;;;;;;;30.60;17.23;;;2.80;99.90;;;;;;4973059;28;20630;-73
2022/01/11 06:08:29;;;;;;;29.77;16.90;;;2.80;99.90;;;;;;4972913;28;20472;-73
2022/01/11 06:10:57;;;;;;;40.27;18.47;;;2.80;99.90;;;;;;4972644;28;20468;-73
2022/01/11 06:13:24;;;;;;;31.33;15.97;;;2.80;99.90;;;;;;4972961;28;20459;-73
2022/01/11 06:15:51;;;;;;;37.63;19.07;;;2.70;99.90;;;;;;4973345;28;20538;-73
2022/01/11 06:18:19;;;;;;;37.00;18.33;;;2.80;99.90;;;;;;4973184;28;20531;-73
2022/01/11 06:20:46;;;;;;;32.17;16.60;;;2.80;99.90;;;;;;4972851;28;20894;-73
2022/01/11 06:23:13;;;;;;;34.20;19.13;;;2.70;99.90;;;;;;4972973;28;20452;-73
2022/01/11 06:25:40;;;;;;;34.53;17.90;;;2.70;99.90;;;;;;4973765;28;20570;-73
2022/01/11 06:28:08;;;;;;;30.23;17.93;;;2.70;99.90;;;;;;4991834;28;21043;-73
2022/01/11 06:30:35;;;;;;;32.93;18.97;;;2.70;99.90;;;;;;4992275;28;20542;-73
2022/01/11 06:33:04;;;;;;;34.10;18.27;;;2.70;99.90;;;;;;4992226;28;20461;-73
2022/01/11 06:35:31;;;;;;;35.20;20.13;;;2.70;99.90;;;;;;4992101;28;21290;-72
2022/01/11 06:37:58;;;;;;;31.73;18.80;;;2.70;99.90;;;;;;4992273;28;21042;-72
2022/01/11 06:40:25;;;;;;;32.50;19.07;;;2.70;99.90;;;;;;4991777;28;20981;-72
2022/01/11 06:42:53;;;;;;;36.30;20.70;;;2.60;99.90;;;;;;4992013;28;20494;-73
2022/01/11 06:45:22;;;;;;;43.13;20.97;;;2.60;99.90;;;;;;4992118;28;20889;-73
2022/01/11 06:47:51;;;;;;;41.00;19.93;;;2.60;99.90;;;;;;4992188;28;20478;-72
2022/01/11 06:50:18;;;;;;;43.97;20.63;;;2.60;99.90;;;;;;4991914;28;20450;-73
2022/01/11 06:52:51;;;;;;;45.70;23.20;;;2.50;99.90;;;;;;4992145;28;20537;-73
2022/01/11 06:55:19;;;;;;;40.50;21.37;;;2.50;99.90;;;;;;4991707;28;20479;-68
2022/01/11 06:57:46;;;;;;;36.70;20.90;;;2.50;99.90;;;;;;4992327;28;20517;-64
2022/01/11 07:00:14;;;;;;;51.43;23.00;;;2.50;99.90;;;;;;4994476;28;20526;-72
2022/01/11 07:02:46;;;;;;;38.20;21.17;;;2.50;99.90;;;;;;4998761;28;20494;-72
2022/01/11 07:05:14;;;;;;;52.70;21.07;;;2.50;99.90;;;;;;4998339;28;20482;-72
2022/01/11 07:07:41;;;;;;;37.77;19.53;;;2.60;99.90;;;;;;4998835;28;20461;-72
2022/01/11 07:10:08;;;;;;;31.83;18.00;;;2.60;99.90;;;;;;4997846;28;20530;-72
2022/01/11 07:12:36;;;;;;;40.00;20.80;;;2.60;99.90;;;;;;4998081;28;20533;-72
2022/01/11 07:15:04;;;;;;;38.97;20.90;;;2.60;99.90;;;;;;4997660;28;20573;-72
2022/01/11 07:17:31;;;;;;;40.50;20.90;;;2.60;99.90;;;;;;4997364;28;20493;-73
2022/01/11 07:19:59;;;;;;;35.70;19.07;;;2.60;99.90;;;;;;4996044;28;20581;-73
2022/01/11 07:22:26;;;;;;;40.57;19.53;;;2.70;99.90;;;;;;4997353;28;20542;-73
2022/01/11 07:24:53;;;;;;;37.37;17.67;;;2.70;99.90;;;;;;4997748;28;20506;-73
2022/01/11 07:27:20;;;;;;;39.70;20.13;;;2.70;99.90;;;;;;4997430;28;20553;-72
2022/01/11 07:29:47;;;;;;;43.40;19.07;;;2.70;99.90;;;;;;4997659;28;20533;-73
2022/01/11 07:32:14;;;;;;;38.90;20.90;;;2.70;99.90;;;;;;4997884;28;20486;-72
2022/01/11 07:34:41;;;;;;;41.67;21.40;;;2.70;99.90;;;;;;4997065;28;21037;-72
2022/01/11 07:37:09;;;;;;;38.97;21.00;;;2.80;99.90;;;;;;4998945;28;20911;-72
2022/01/11 07:39:36;;;;;;;49.37;21.63;;;2.80;99.90;;;;;;4998267;28;20581;-72
2022/01/11 07:42:04;;;;;;;41.90;21.77;;;2.70;99.90;;;;;;4999264;28;20481;-73
2022/01/11 07:44:30;;;;;;;43.37;21.40;;;2.80;99.90;;;;;;4998838;28;20507;-72
2022/01/11 07:46:58;;;;;;;41.93;21.77;;;2.70;99.90;;;;;;4998893;28;20454;-73
2022/01/11 07:49:25;;;;;;;43.07;22.07;;;2.70;99.90;;;;;;4998140;28;20455;-73
2022/01/11 07:51:52;;;;;;;42.73;23.17;;;2.70;99.90;;;;;;4998252;28;20487;-73
2022/01/11 07:54:20;;;;;;;41.03;20.37;;;2.70;99.90;;;;;;4997973;28;20506;-72
2022/01/11 07:56:47;;;;;;;41.87;21.50;;;2.80;99.90;;;;;;4997960;28;20573;-72
2022/01/11 07:59:14;;;;;;;39.77;21.53;;;2.80;99.90;;;;;;4998365;28;20562;-72
2022/01/11 08:01:41;;;;;;;49.33;23.43;;;2.70;99.90;;;;;;4997724;28;20514;-73
2022/01/11 08:04:08;;;;;;;43.03;21.80;;;2.80;99.90;;;;;;4997150;28;20558;-72
2022/01/11 08:06:35;;;;;;;42.00;22.10;;;2.80;99.90;;;;;;4997034;28;20546;-73
2022/01/11 08:09:02;;;;;;;43.77;22.53;;;2.80;99.90;;;;;;4996237;28;20892;-72
2022/01/11 08:11:30;;;;;;;44.97;22.43;;;2.80;99.90;;;;;;4995614;28;20499;-72
2022/01/11 08:13:57;;;;;;;47.87;23.83;;;2.80;99.90;;;;;;4994653;28;20483;-72
2022/01/11 08:16:24;;;;;;;44.23;22.30;;;2.80;99.90;;;;;;4994563;28;20538;-72
2022/01/11 08:18:51;;;;;;;49.97;23.97;;;2.80;99.90;;;;;;4994623;28;20534;-72
2022/01/11 08:21:18;;;;;;;40.67;22.57;;;2.90;99.90;;;;;;4994544;28;20542;-71
2022/01/11 08:23:45;;;;;;;43.57;22.07;;;2.90;99.90;;;;;;4994915;28;20553;-72
2022/01/11 08:26:13;;;;;;;59.67;28.17;;;2.90;99.90;;;;;;4994575;28;20530;-71
2022/01/11 08:28:43;;;;;;;52.07;25.87;;;3.00;99.90;;;;;;4993407;28;20482;-72
2022/01/11 08:31:10;;;;;;;46.27;26.00;;;3.00;99.90;;;;;;4994475;28;20493;-72
2022/01/11 08:33:38;;;;;;;51.93;29.20;;;3.00;99.90;;;;;;4994210;28;20959;-72
2022/01/11 08:36:06;;;;;;;47.63;24.70;;;3.00;99.90;;;;;;4994447;28;20443;-72
2022/01/11 08:38:32;;;;;;;53.07;25.70;;;3.00;99.90;;;;;;4994055;28;20855;-72
2022/01/11 08:40:59;;;;;;;47.30;23.43;;;3.10;99.90;;;;;;4994092;28;20581;-72
2022/01/11 08:43:26;;;;;;;47.80;24.30;;;3.10;99.90;;;;;;4994597;28;20490;-72
2022/01/11 08:45:54;;;;;;;47.67;23.27;;;3.10;99.90;;;;;;4994201;28;20998;-72
2022/01/11 08:48:22;;;;;;;48.97;23.00;;;3.10;99.90;;;;;;4994406;28;20538;-72
2022/01/11 08:50:53;;;;;;;50.13;24.77;;;3.10;99.90;;;;;;4993736;28;20482;-71
2022/01/11 08:53:20;;;;;;;50.57;24.57;;;3.10;99.90;;;;;;4994171;28;20550;-72
2022/01/11 08:55:47;;;;;;;53.57;23.20;;;3.10;99.90;;;;;;4994064;28;20555;-72
2022/01/11 08:58:14;;;;;;;47.20;23.07;;;3.20;99.90;;;;;;4994774;28;20543;-72
2022/01/11 09:00:41;;;;;;;48.97;24.53;;;3.20;99.90;;;;;;4995614;28;20566;-72
2022/01/11 09:03:09;;;;;;;45.10;22.90;;;3.30;99.90;;;;;;4995947;28;20533;-72
2022/01/11 09:05:37;;;;;;;43.87;22.67;;;3.30;99.90;;;;;;4994983;28;20946;-72
2022/01/11 09:08:04;;;;;;;46.57;24.87;;;3.40;99.90;;;;;;4995543;28;20535;-73
2022/01/11 09:10:31;;;;;;;53.57;25.90;;;3.40;99.90;;;;;;4995099;28;20542;-73
2022/01/11 09:12:58;;;;;;;47.63;24.27;;;3.40;99.90;;;;;;4995754;28;20534;-73
2022/01/11 09:15:25;;;;;;;42.07;22.70;;;3.50;99.90;;;;;;4996101;28;21105;-73
2022/01/11 09:17:52;;;;;;;45.13;23.70;;;3.50;99.90;;;;;;4989159;28;20903;-74
2022/01/11 09:20:20;;;;;;;41.93;23.07;;;3.50;99.90;;;;;;4978707;28;20531;-73
2022/01/11 09:22:47;;;;;;;46.43;23.00;;;3.60;99.90;;;;;;4978095;28;20543;-74
2022/01/11 09:25:15;;;;;;;44.10;23.07;;;3.60;99.90;;;;;;4978073;28;20566;-73
2022/01/11 09:27:43;;;;;;;44.63;22.30;;;3.70;99.90;;;;;;4976702;28;20463;-73
2022/01/11 09:30:13;;;;;;;44.70;22.60;;;3.80;99.90;;;;;;4975524;28;20474;-73
2022/01/11 09:32:42;;;;;;;44.00;24.03;;;3.80;99.90;;;;;;4974736;28;20444;-73
2022/01/11 09:35:11;;;;;;;38.80;21.23;;;3.70;99.90;;;;;;4974057;28;20464;-72
2022/01/11 09:37:40;;;;;;;38.57;21.93;;;3.70;99.90;;;;;;4973515;28;20495;-75
2022/01/11 09:40:10;;;;;;;40.40;22.17;;;3.80;99.90;;;;;;4974850;28;21027;-73
2022/01/11 09:42:37;;;;;;;38.23;21.13;;;3.70;99.90;;;;;;4975291;28;20539;-73
2022/01/11 09:45:05;;;;;;;38.57;19.50;;;3.70;99.90;;;;;;4974974;28;20921;-73
2022/01/11 09:47:32;;;;;;;47.70;21.73;;;3.70;99.90;;;;;;4974391;28;20534;-73
2022/01/11 09:49:59;;;;;;;54.60;21.37;;;3.80;99.90;;;;;;4975808;28;20543;-73
2022/01/11 09:52:27;;;;;;;41.90;23.70;;;3.90;99.90;;;;;;4975897;28;20496;-73
2022/01/11 09:54:56;;;;;;;37.33;20.90;;;3.90;99.90;;;;;;4976729;28;20475;-74
2022/01/11 09:57:23;;;;;;;39.27;19.60;;;3.90;99.90;;;;;;4975967;28;20436;-73
2022/01/11 09:59:51;;;;;;;40.80;20.60;;;3.90;99.90;;;;;;4975332;28;20579;-73
2022/01/11 10:02:18;;;;;;;39.67;19.60;;;4.00;99.90;;;;;;4976017;28;20499;-73
2022/01/11 10:04:45;;;;;;;33.47;18.93;;;4.10;99.90;;;;;;4978304;28;20667;-73
2022/01/11 10:07:13;;;;;;;50.07;20.40;;;4.10;99.90;;;;;;4988499;28;20467;-74
2022/01/11 10:09:46;;;;;;;37.17;19.50;;;4.20;99.90;;;;;;4990874;28;20550;-73
2022/01/11 10:12:15;;;;;;;34.93;17.50;;;4.20;99.90;;;;;;4990142;28;20465;-74
2022/01/11 10:14:48;;;;;;;38.77;18.83;;;4.30;99.90;;;;;;4983511;28;20570;-73
2022/01/11 10:17:18;;;;;;;33.17;17.03;;;4.30;99.90;;;;;;4981978;28;20483;-73
2022/01/11 10:19:47;;;;;;;31.90;16.27;;;4.40;99.90;;;;;;4977972;28;20499;-70
2022/01/11 10:22:17;;;;;;;31.30;15.93;;;4.40;99.90;;;;;;4972619;28;20483;-70
2022/01/11 10:24:46;;;;;;;29.67;14.03;;;4.40;99.90;;;;;;4972606;28;20512;-70
2022/01/11 10:27:18;;;;;;;29.80;15.57;;;4.50;99.90;;;;;;4972955;28;20567;-70
2022/01/11 10:29:46;;;;;;;34.20;15.37;;;4.60;99.90;;;;;;4971704;28;20535;-72
2022/01/11 10:32:23;;;;;;;31.27;15.90;;;4.60;99.90;;;;;;4972612;28;20937;-72
2022/01/11 10:34:53;;;;;;;33.50;17.50;;;4.60;99.90;;;;;;4973076;28;20475;-73
2022/01/11 10:37:33;;;;;;;29.93;16.40;;;4.70;99.90;;;;;;4976981;28;20456;-72
2022/01/11 10:40:09;;;;;;;26.60;15.10;;;4.70;99.90;;;;;;4975108;28;20527;-73
2022/01/11 10:42:44;;;;;;;29.07;15.37;;;4.80;99.90;;;;;;4976813;28;20460;-73
2022/01/11 10:45:14;;;;;;;28.40;15.30;;;4.80;99.90;;;;;;4977039;28;20498;-73
2022/01/11 10:47:44;;;;;;;28.70;14.30;;;4.90;99.90;;;;;;4976836;28;20484;-74
2022/01/11 10:50:14;;;;;;;24.60;13.77;;;4.90;99.90;;;;;;4976712;28;20479;-73
2022/01/11 10:52:42;;;;;;;27.00;12.30;;;4.90;99.90;;;;;;4976358;28;20813;-73
2022/01/11 10:55:13;;;;;;;20.43;11.73;;;5.00;99.90;;;;;;4976655;28;20538;-73
2022/01/11 10:57:44;;;;;;;20.40;12.07;;;5.00;99.90;;;;;;4976725;28;20896;-73
2022/01/11 11:00:23;;;;;;;24.97;11.90;;;5.00;99.90;;;;;;4976352;28;20839;-73
2022/01/11 11:02:54;;;;;;;21.80;12.43;;;5.00;99.90;;;;;;4976602;28;20995;-72
2022/01/11 11:05:25;;;;;;;19.30;11.83;;;5.00;99.90;;;;;;4976371;28;20480;-72
2022/01/11 11:08:02;;;;;;;20.77;11.13;;;5.00;99.90;;;;;;4976372;28;20897;-73
2022/01/11 11:10:37;;;;;;;22.53;13.03;;;5.10;99.90;;;;;;4976152;28;20448;-73
2022/01/11 11:13:07;;;;;;;21.07;12.50;;;5.10;99.90;;;;;;4976322;28;20509;-72
2022/01/11 11:15:36;;;;;;;20.53;10.00;;;5.10;99.90;;;;;;5014542;23;20500;-75
2022/01/11 11:18:05;;;;;;;13.77;9.00;;;5.20;99.90;;;;;;4975964;28;20460;-74
2022/01/11 11:20:33;;;;;;;17.17;10.00;;;5.20;99.90;;;;;;4975236;28;21106;-74
2022/01/11 11:23:02;;;;;;;15.07;9.70;;;5.20;99.90;;;;;;4976099;28;20951;-74
2022/01/11 11:25:29;;;;;;;18.67;10.30;;;5.30;99.90;;;;;;4975937;28;20526;-74
2022/01/11 11:27:56;;;;;;;15.40;9.93;;;5.30;99.90;;;;;;4976053;28;21046;-74
2022/01/11 11:30:24;;;;;;;17.23;10.47;;;5.30;99.90;;;;;;4975786;28;20452;-73
2022/01/11 11:32:54;;;;;;;20.27;10.57;;;5.40;99.90;;;;;;4976011;28;20487;-74
2022/01/11 11:35:21;;;;;;;19.03;8.20;;;5.50;99.90;;;;;;4975895;28;20566;-74
2022/01/11 11:37:52;;;;;;;10.50;7.70;;;5.50;99.90;;;;;;4976260;28;20459;-74
2022/01/11 11:40:22;;;;;;;8.57;6.70;;;5.60;99.90;;;;;;4975856;28;20576;-74
2022/01/11 11:42:53;;;;;;;7.37;5.63;;;5.60;99.90;;;;;;4975838;28;20909;-74
2022/01/11 11:45:22;;;;;;;5.67;4.40;;;5.60;99.90;;;;;;4975789;28;20511;-74
2022/01/11 11:47:51;;;;;;;4.80;4.20;;;5.70;99.90;;;;;;4975274;28;20905;-75
2022/01/11 11:50:21;;;;;;;7.07;5.37;;;5.80;99.90;;;;;;4975476;28;21010;-75
2022/01/11 11:52:49;;;;;;;6.00;4.60;;;5.80;99.90;;;;;;4976169;28;20447;-74
2022/01/11 11:55:24;;;;;;;4.07;3.77;;;5.70;99.90;;;;;;4975948;28;20571;-76
2022/01/11 11:57:53;;;;;;;7.77;4.60;;;5.70;99.90;;;;;;4975708;28;20550;-74
2022/01/11 12:00:23;;;;;;;6.50;5.10;;;5.80;99.90;;;;;;4975719;28;20492;-77
2022/01/11 12:02:53;;;;;;;5.23;4.13;;;5.80;99.90;;;;;;4975532;28;21011;-75
2022/01/11 12:05:36;;;;;;;5.43;4.40;;;5.80;99.90;;;;;;4974742;28;20504;-67
2022/01/11 12:08:26;;;;;;;4.93;3.63;;;5.80;99.90;;;;;;4974609;28;20455;-66
2022/01/11 12:10:54;;;;;;;4.53;3.77;;;5.80;99.90;;;;;;4970108;28;20460;-75
2022/01/11 12:13:47;;;;;;;5.33;2.83;;;5.70;99.90;;;;;;4974243;28;20611;-75
2022/01/11 12:16:50;;;;;;;4.77;3.83;;;5.70;99.90;;;;;;4973719;28;20494;-75
2022/01/11 12:19:44;;;;;;;4.20;3.37;;;5.70;99.90;;;;;;4973808;28;20551;-75
2022/01/11 12:22:35;;;;;;;4.67;3.47;;;5.70;99.90;;;;;;4966086;28;20620;-75
2022/01/11 12:25:03;;;;;;;4.37;3.70;;;5.60;99.90;;;;;;4974072;28;20905;-75
2022/01/11 12:27:30;;;;;;;5.80;3.97;;;5.60;99.90;;;;;;4974086;28;20830;-76
2022/01/11 12:30:09;;;;;;;6.40;4.30;;;5.70;99.90;;;;;;4973883;28;20531;-75
2022/01/11 12:32:57;;;;;;;6.13;4.30;;;5.70;99.90;;;;;;4973691;28;20494;-76
2022/01/11 12:35:25;;;;;;;6.20;4.60;;;5.70;99.90;;;;;;4973559;28;20567;-75
2022/01/11 12:38:07;;;;;;;5.40;4.27;;;5.70;99.90;;;;;;4973816;28;21223;-75
2022/01/11 12:40:38;;;;;;;4.67;4.27;;;5.80;99.90;;;;;;4973460;28;20491;-75
2022/01/11 12:43:07;;;;;;;4.47;3.93;;;5.80;99.90;;;;;;4973512;28;21002;-75
2022/01/11 12:45:58;;;;;;;5.27;3.63;;;5.70;99.90;;;;;;4973642;28;20503;-75
2022/01/11 12:48:58;;;;;;;5.97;4.67;;;5.70;99.90;;;;;;4973531;28;20456;-75
2022/01/11 12:51:30;;;;;;;7.30;3.80;;;5.60;99.90;;;;;;4973348;28;20547;-75
2022/01/11 12:54:13;;;;;;;7.43;4.50;;;5.70;99.90;;;;;;4973270;28;21026;-75
2022/01/11 12:56:41;;;;;;;4.50;3.80;;;5.70;99.90;;;;;;4973440;28;20488;-75
2022/01/11 12:59:08;;;;;;;6.10;4.20;;;5.70;99.90;;;;;;4972448;28;20539;-75
2022/01/11 13:01:36;;;;;;;7.80;3.83;;;5.70;99.90;;;;;;4973328;28;20587;-75
2022/01/11 13:04:02;;;;;;;5.43;4.10;;;5.70;99.90;;;;;;4974046;28;20879;-75
2022/01/11 13:06:32;;;;;;;5.50;4.00;;;5.80;99.90;;;;;;4974429;28;20523;-75
2022/01/11 13:09:01;;;;;;;5.77;4.00;;;5.80;99.90;;;;;;4973981;28;20980;-75
2022/01/11 13:11:28;;;;;;;8.07;5.33;;;5.80;99.90;;;;;;4974151;28;20484;-75
2022/01/11 13:14:17;;;;;;;5.10;4.50;;;5.70;99.90;;;;;;4974139;28;20455;-75
2022/01/11 13:16:44;;;;;;;7.13;4.80;;;5.70;99.90;;;;;;4974269;28;20986;-75
2022/01/11 13:19:12;;;;;;;6.30;5.17;;;5.70;99.90;;;;;;4974022;28;20481;-77
2022/01/11 13:21:40;;;;;;;6.70;5.30;;;5.70;99.90;;;;;;4973874;28;20585;-75
2022/01/11 13:24:22;;;;;;;7.37;4.57;;;5.70;99.90;;;;;;4974049;28;20540;-76
2022/01/11 13:26:50;;;;;;;5.03;4.53;;;5.70;99.90;;;;;;4973794;28;20508;-76
2022/01/11 13:29:18;;;;;;;6.63;4.93;;;5.60;99.90;;;;;;4973549;28;20948;-76
2022/01/11 13:31:49;;;;;;;6.67;4.67;;;5.60;99.90;;;;;;4973921;28;20448;-76
2022/01/11 13:34:17;;;;;;;12.23;5.20;;;5.60;99.90;;;;;;4973693;28;20813;-76
2022/01/11 13:36:48;;;;;;;7.60;5.60;;;5.70;99.90;;;;;;4973698;28;20539;-76
2022/01/11 13:39:16;;;;;;;6.90;5.80;;;5.70;99.90;;;;;;4973366;28;20831;-76
2022/01/11 13:41:47;;;;;;;7.00;4.70;;;5.70;99.90;;;;;;4973508;28;20587;-76
2022/01/11 13:44:16;;;;;;;5.83;4.30;;;5.70;99.90;;;;;;4973664;28;20468;-76
2022/01/11 13:46:45;;;;;;;7.10;4.97;;;5.70;99.90;;;;;;4973429;28;20542;-77
2022/01/11 13:49:17;;;;;;;6.20;4.07;;;5.70;99.90;;;;;;4973274;28;20886;-76
2022/01/11 13:51:47;;;;;;;6.43;4.77;;;5.70;99.90;;;;;;4973287;28;21015;-76
2022/01/11 13:54:15;;;;;;;6.70;5.13;;;5.60;99.90;;;;;;4973461;28;20542;-76
2022/01/11 13:56:44;;;;;;;9.23;5.80;;;5.60;99.90;;;;;;4973534;28;20488;-76
2022/01/11 13:59:16;;;;;;;7.17;5.17;;;5.60;99.90;;;;;;4973336;28;20452;-77
2022/01/11 14:01:43;;;;;;;8.80;6.03;;;5.60;99.90;;;;;;4973100;28;20492;-76
2022/01/11 14:04:11;;;;;;;13.40;8.40;;;5.50;99.90;;;;;;4973174;28;20463;-76
2022/01/11 14:06:44;;;;;;;7.23;6.00;;;5.60;99.90;;;;;;4973161;28;20502;-76
2022/01/11 14:09:17;;;;;;;11.00;7.60;;;5.50;99.90;;;;;;4972962;28;20510;-76
2022/01/11 14:12:03;;;;;;;9.10;6.93;;;5.50;99.90;;;;;;4973300;28;20467;-77
2022/01/11 14:14:30;;;;;;;7.87;6.33;;;5.50;99.90;;;;;;4973023;28;20546;-77
2022/01/11 14:16:57;;;;;;;7.00;5.00;;;5.50;99.90;;;;;;4972966;28;21018;-76
2022/01/11 14:19:25;;;;;;;5.60;4.33;;;5.40;99.90;;;;;;4972940;28;20554;-76
2022/01/11 14:21:57;;;;;;;10.13;5.17;;;5.40;99.90;;;;;;4973211;28;20523;-76
2022/01/11 14:24:50;;;;;;;6.53;4.50;;;5.30;99.90;;;;;;4973056;28;20578;-76
2022/01/11 14:27:18;;;;;;;5.53;4.70;;;5.30;99.90;;;;;;4972945;28;20546;-75
2022/01/11 14:29:54;;;;;;;6.63;4.70;;;5.30;99.90;;;;;;4973114;28;20452;-76
2022/01/11 14:32:22;;;;;;;5.43;4.90;;;5.40;99.90;;;;;;4973457;28;20447;-76
2022/01/11 14:34:56;;;;;;;6.40;4.50;;;5.40;99.90;;;;;;4972861;28;20504;-76
2022/01/11 14:37:25;;;;;;;5.13;4.60;;;5.40;99.90;;;;;;4972817;28;20459;-76
2022/01/11 14:39:54;;;;;;;6.00;4.40;;;5.40;99.90;;;;;;4972519;28;20456;-76
2022/01/11 14:42:26;;;;;;;7.87;4.10;;;5.40;99.90;;;;;;4972856;28;20527;-75
2022/01/11 14:45:09;;;;;;;5.20;4.30;;;5.40;99.90;;;;;;4972641;28;20550;-76
2022/01/11 14:47:45;;;;;;;6.53;5.03;;;5.40;99.90;;;;;;4971247;28;20526;-76
2022/01/11 14:50:15;;;;;;;6.10;4.23;;;5.40;99.90;;;;;;4972527;28;20468;-76
2022/01/11 14:53:04;;;;;;;6.87;4.13;;;5.50;99.90;;;;;;4972507;28;20534;-76
2022/01/11 14:55:51;;;;;;;6.33;4.80;;;5.40;99.90;;;;;;4972415;28;20471;-76
2022/01/11 14:58:20;;;;;;;8.90;5.70;;;5.40;99.90;;;;;;4962523;28;20476;-76
2022/01/11 15:00:50;;;;;;;8.27;5.43;;;5.40;99.90;;;;;;4953500;28;20543;-76
2022/01/11 15:03:29;;;;;;;6.47;5.30;;;5.30;99.90;;;;;;4960074;28;20825;-76
2022/01/11 15:06:07;;;;;;;6.37;4.53;;;5.30;99.90;;;;;;4962451;28;20871;-76
2022/01/11 15:08:36;;;;;;;6.20;4.70;;;5.30;99.90;;;;;;4972618;28;20456;-76
2022/01/11 15:11:10;;;;;;;7.03;5.07;;;5.30;99.90;;;;;;4972321;28;20527;-76
2022/01/11 15:13:43;;;;;;;7.37;5.33;;;5.30;99.90;;;;;;4972600;28;21055;-76
2022/01/11 15:16:10;;;;;;;4.87;4.27;;;5.20;99.90;;;;;;4972467;28;20566;-76
2022/01/11 15:18:38;;;;;;;6.60;4.90;;;5.20;99.90;;;;;;4972560;28;20527;-77
2022/01/11 15:21:08;;;;;;;6.30;5.23;;;5.20;99.90;;;;;;4972750;28;20936;-76
2022/01/11 15:23:36;;;;;;;10.20;7.20;;;5.20;99.90;;;;;;4975831;28;20503;-76
2022/01/11 15:26:03;;;;;;;9.43;6.90;;;5.20;99.90;;;;;;4976249;28;20507;-77
2022/01/11 15:28:32;;;;;;;8.23;6.43;;;5.10;99.90;;;;;;4976013;28;20514;-75
2022/01/11 15:30:59;;;;;;;7.57;5.50;;;5.10;99.90;;;;;;4975782;28;20538;-75
2022/01/11 15:33:26;;;;;;;10.83;7.80;;;5.10;99.90;;;;;;4975923;28;20483;-76
2022/01/11 15:35:53;;;;;;;12.20;7.60;;;5.10;99.90;;;;;;4975781;28;20895;-76
2022/01/11 15:38:20;;;;;;;7.83;6.47;;;5.10;99.90;;;;;;4975791;28;20543;-76
2022/01/11 15:40:47;;;;;;;8.73;6.10;;;5.20;99.90;;;;;;4968887;28;20476;-76
2022/01/11 15:43:14;;;;;;;9.50;7.17;;;5.20;99.90;;;;;;4966597;28;20519;-76
2022/01/11 15:45:42;;;;;;;6.63;4.97;;;5.10;99.90;;;;;;4959019;28;20526;-77
2022/01/11 15:48:09;;;;;;;7.03;5.00;;;5.10;99.90;;;;;;4956402;28;20489;-76
2022/01/11 15:50:36;;;;;;;7.93;5.83;;;5.00;99.90;;;;;;4955931;29;20556;-76
2022/01/11 15:53:03;;;;;;;9.67;7.07;;;5.00;99.90;;;;;;4956406;28;20544;-76
2022/01/11 15:55:31;;;;;;;12.27;8.53;;;5.00;99.90;;;;;;4956303;29;20564;-76
2022/01/11 15:57:58;;;;;;;25.83;15.03;;;5.00;99.90;;;;;;4956254;29;20489;-76
2022/01/11 16:00:25;;;;;;;22.57;12.33;;;5.00;99.90;;;;;;4956023;28;21001;-76
2022/01/11 16:02:53;;;;;;;23.90;11.70;;;5.00;99.90;;;;;;4955993;28;20528;-75
2022/01/11 16:05:21;;;;;;;16.40;9.50;;;5.00;99.90;;;;;;4955852;28;20483;-76
2022/01/11 16:07:48;;;;;;;21.13;10.80;;;5.00;99.90;;;;;;4955945;29;20539;-76
2022/01/11 16:10:15;;;;;;;19.47;11.30;;;5.00;99.90;;;;;;4955898;28;20484;-76
2022/01/11 16:12:42;;;;;;;16.27;9.17;;;5.00;99.90;;;;;;4955871;28;20536;-76
2022/01/11 16:15:10;;;;;;;22.53;10.03;;;5.00;99.90;;;;;;4955696;29;21016;-76
2022/01/11 16:17:36;;;;;;;14.03;8.00;;;4.90;99.90;;;;;;4955722;28;20626;-75
2022/01/11 16:20:06;;;;;;;14.40;9.00;;;4.90;99.90;;;;;;4955509;28;20473;-75
2022/01/11 16:22:33;;;;;;;10.00;6.90;;;4.90;99.90;;;;;;4955926;29;20584;-77
2022/01/11 16:25:00;;;;;;;12.10;7.30;;;5.00;99.90;;;;;;4955885;28;20472;-77
2022/01/11 16:27:28;;;;;;;13.97;8.90;;;5.00;99.90;;;;;;4955921;29;20548;-76
2022/01/11 16:29:54;;;;;;;9.17;7.03;;;5.00;99.90;;;;;;4955476;29;20968;-77
2022/01/11 16:32:23;;;;;;;9.80;6.47;;;5.10;99.90;;;;;;4955153;28;20445;-77
2022/01/11 16:34:51;;;;;;;14.03;9.77;;;5.00;99.90;;;;;;4955313;28;20481;-77
2022/01/11 16:37:20;;;;;;;15.77;8.73;;;5.00;99.90;;;;;;4955905;28;20452;-77
2022/01/11 16:39:57;;;;;;;9.83;6.60;;;5.00;99.90;;;;;;4955328;28;20488;-77
2022/01/11 16:42:38;;;;;;;15.53;7.93;;;5.00;99.90;;;;;;4955543;28;20516;-77
2022/01/11 16:45:06;;;;;;;14.87;7.60;;;5.00;99.90;;;;;;4955633;28;20479;-76
2022/01/11 16:47:34;;;;;;;12.00;8.20;;;5.00;99.90;;;;;;4955346;28;20876;-77
2022/01/11 16:50:01;;;;;;;10.67;7.30;;;4.90;99.90;;;;;;4955113;28;20585;-77
2022/01/11 16:52:30;;;;;;;11.37;7.77;;;4.90;99.90;;;;;;4955243;29;20948;-77
2022/01/11 16:54:57;;;;;;;10.97;8.57;;;4.90;99.90;;;;;;4955235;28;20572;-77
2022/01/11 16:57:24;;;;;;;14.30;10.70;;;4.80;99.90;;;;;;4954839;29;20499;-77
2022/01/11 16:59:50;;;;;;;11.47;8.83;;;4.80;99.90;;;;;;4954784;28;20926;-77
2022/01/11 17:02:18;;;;;;;9.97;8.07;;;4.80;99.90;;;;;;4955142;29;20591;-77
2022/01/11 17:04:45;;;;;;;12.07;8.80;;;4.80;99.90;;;;;;4954997;29;20556;-77
2022/01/11 17:07:12;;;;;;;13.47;9.17;;;4.80;99.90;;;;;;4955048;29;20449;-77
2022/01/11 17:09:41;;;;;;;8.70;7.50;;;4.80;99.90;;;;;;4954556;29;20507;-77
2022/01/11 17:12:08;;;;;;;9.90;6.70;;;4.90;99.90;;;;;;4955064;28;20452;-77
2022/01/11 17:14:35;;;;;;;8.47;6.90;;;4.80;99.90;;;;;;4955103;28;20487;-77
2022/01/11 17:17:02;;;;;;;10.30;8.40;;;4.80;99.90;;;;;;4954911;29;20532;-77
2022/01/11 17:19:29;;;;;;;9.20;6.67;;;4.80;99.90;;;;;;4954314;28;20539;-76
2022/01/11 17:21:57;;;;;;;10.07;6.80;;;4.80;99.90;;;;;;4954663;29;20600;-76
2022/01/11 17:24:25;;;;;;;9.33;7.30;;;4.70;99.90;;;;;;4954405;29;20540;-76
2022/01/11 17:26:53;;;;;;;12.10;8.80;;;4.70;99.90;;;;;;4954672;29;20544;-77
2022/01/11 17:29:20;;;;;;;13.17;8.70;;;4.70;99.90;;;;;;4954378;29;20463;-76
2022/01/11 17:31:48;;;;;;;20.50;12.23;;;4.70;99.90;;;;;;4954607;29;20551;-76
2022/01/11 17:34:15;;;;;;;16.10;11.40;;;4.70;99.90;;;;;;4954594;28;20500;-76
2022/01/11 17:36:42;;;;;;;14.10;10.00;;;4.70;99.90;;;;;;4954507;28;20472;-76
2022/01/11 17:39:10;;;;;;;13.57;9.60;;;4.70;99.90;;;;;;4954815;28;20524;-77
2022/01/11 17:41:37;;;;;;;14.93;9.70;;;4.70;99.90;;;;;;4954612;29;20488;-76
2022/01/11 17:44:06;;;;;;;17.30;10.23;;;4.70;99.90;;;;;;4953850;28;20457;-77
2022/01/11 17:46:34;;;;;;;14.87;7.77;;;4.60;99.90;;;;;;4954261;28;20461;-77
2022/01/11 17:49:01;;;;;;;12.77;8.33;;;4.60;99.90;;;;;;4954054;29;20532;-77
2022/01/11 17:51:28;;;;;;;15.30;9.20;;;4.60;99.90;;;;;;4954035;29;20474;-77
2022/01/11 17:53:56;;;;;;;14.20;9.50;;;4.60;99.90;;;;;;4954020;28;20453;-77
2022/01/11 17:56:23;;;;;;;10.70;7.20;;;4.60;99.90;;;;;;4953939;29;20559;-77
2022/01/11 17:58:53;;;;;;;11.40;6.70;;;4.60;99.90;;;;;;4953997;28;20449;-77